In Rescue
 
Open Full Screen Window  High Contrast Mode
Wind Gusting 00 knots
09
March 29, 2020 7:37 PM CDT
Weather Information
Wind Direction
  300 °
Wind Speed
  09 kt (10 mph)
Wind Gust
  00 kt (0 mph)
Altimeter
30.02 in
Visibility
10 SM
Temperature
06° C
43° F
Dewpoint
-08° C
18° F
Humidity
36%
1hr Rain Fall
00.00 in.
24hr Rain Fall
00.00 in.
Sky Condition
Clear
VFR

METAR KBJI 300037Z AUTO 30009KT 10SM CLR 06/M08 A3002 RMK AO2 T00621079

FAA Disclaimer: The data displayed is for advisory purposes only and is not to be used for flight planning or operations.